createdAt,value
2022-09-03T00:02:04.331Z,6.60
2022-09-03T00:04:43.989Z,6.00
2022-09-03T00:08:04.186Z,5.60
2022-09-03T00:10:51.810Z,6.20
2022-09-03T00:13:50.307Z,6.10
2022-09-03T00:16:20.563Z,6.40
2022-09-03T00:19:00.508Z,6.70
2022-09-03T00:21:48.635Z,6.40
2022-09-03T00:24:18.316Z,4.60
2022-09-03T00:26:47.312Z,7.30
2022-09-03T00:29:17.731Z,5.40
2022-09-03T00:31:48.037Z,5.60
2022-09-03T00:34:27.310Z,5.00
2022-09-03T00:36:53.925Z,4.70
2022-09-03T00:39:23.751Z,4.60
2022-09-03T00:42:12.188Z,5.70
2022-09-03T00:44:45.176Z,6.10
2022-09-03T00:47:18.365Z,5.70
2022-09-03T00:49:57.087Z,6.30
2022-09-03T00:52:44.820Z,5.00
2022-09-03T00:55:44.478Z,6.90
2022-09-03T00:58:29.710Z,6.20
2022-09-03T01:00:56.343Z,6.70
2022-09-03T01:03:32.302Z,6.60
2022-09-03T01:06:14.206Z,5.40
2022-09-03T01:09:02.770Z,5.70
2022-09-03T01:11:51.314Z,6.90
2022-09-03T01:14:54.390Z,6.30
2022-09-03T01:17:30.146Z,5.50
2022-09-03T01:20:03.846Z,6.10
2022-09-03T01:22:49.246Z,6.50
2022-09-03T01:25:40.840Z,6.90
2022-09-03T01:28:20.116Z,8.20
2022-09-03T01:30:57.235Z,6.60
2022-09-03T01:34:08.817Z,7.20
2022-09-03T01:36:47.270Z,5.00
2022-09-03T01:39:26.876Z,6.90
2022-09-03T01:42:30.106Z,6.30
2022-09-03T01:44:58.285Z,6.20
2022-09-03T01:47:34.747Z,6.20
2022-09-03T01:50:19.915Z,9.80
2022-09-03T01:52:52.507Z,6.40
2022-09-03T01:55:44.541Z,5.70
2022-09-03T01:58:32.668Z,5.90
2022-09-03T02:01:07.389Z,7.70
2022-09-03T02:03:40.885Z,6.80
2022-09-03T02:06:09.894Z,7.50
2022-09-03T02:08:36.340Z,8.20
2022-09-03T02:11:06.972Z,6.00
2022-09-03T02:13:45.986Z,8.00
2022-09-03T02:16:19.836Z,6.70
2022-09-03T02:18:50.547Z,5.60
2022-09-03T02:21:19.876Z,7.70
2022-09-03T02:23:48.117Z,6.70
2022-09-03T02:26:18.749Z,6.40
2022-09-03T02:28:45.780Z,7.10
2022-09-03T02:31:12.390Z,6.80
2022-09-03T02:33:42.057Z,6.80
2022-09-03T02:36:11.659Z,6.90
2022-09-03T02:38:40.639Z,5.90
2022-09-03T02:41:07.972Z,6.10
2022-09-03T02:43:40.586Z,5.90
2022-09-03T02:46:10.437Z,5.70
2022-09-03T02:48:37.205Z,6.50
2022-09-03T02:51:13.944Z,7.40
2022-09-03T02:53:42.386Z,7.40
2022-09-03T02:56:09.302Z,6.60
2022-09-03T02:58:35.839Z,6.60
2022-09-03T03:01:03.961Z,6.50
2022-09-03T03:03:31.286Z,6.30
2022-09-03T03:06:00.453Z,6.60
2022-09-03T03:08:28.640Z,7.00
2022-09-03T03:11:00.346Z,6.60
2022-09-03T03:13:27.851Z,7.90
2022-09-03T03:15:59.207Z,5.90
2022-09-03T03:18:25.997Z,7.40
2022-09-03T03:20:52.690Z,5.60
2022-09-03T03:23:19.211Z,6.30
2022-09-03T03:25:46.386Z,7.20
2022-09-03T03:28:13.513Z,5.70
2022-09-03T03:30:42.301Z,6.20
2022-09-03T03:33:10.076Z,6.00
2022-09-03T03:35:36.702Z,6.50
2022-09-03T03:38:04.773Z,8.40
2022-09-03T03:40:31.282Z,6.50
2022-09-03T03:42:58.683Z,7.10
2022-09-03T03:45:25.405Z,6.20
2022-09-03T03:47:52.768Z,7.50
2022-09-03T03:50:20.624Z,7.00
2022-09-03T03:52:48.390Z,7.40
2022-09-03T03:55:15.975Z,8.30
2022-09-03T03:57:42.585Z,7.20
2022-09-03T04:00:09.843Z,7.30
2022-09-03T04:02:42.771Z,8.50
2022-09-03T04:05:09.789Z,6.40
2022-09-03T04:07:37.034Z,7.10
2022-09-03T04:10:04.085Z,8.20
2022-09-03T04:12:30.603Z,7.30
2022-09-03T04:14:57.140Z,8.80
2022-09-03T04:17:25.417Z,7.90
2022-09-03T04:19:53.292Z,9.40
2022-09-03T04:22:20.430Z,6.60
2022-09-03T04:24:47.065Z,6.70
2022-09-03T04:27:13.625Z,7.00
2022-09-03T04:29:40.140Z,8.10
2022-09-03T04:32:25.746Z,7.30
2022-09-03T04:34:52.366Z,7.20
2022-09-03T04:37:19.921Z,7.30
2022-09-03T04:39:46.552Z,6.90
2022-09-03T04:42:13.209Z,7.50
2022-09-03T04:44:40.720Z,7.70
2022-09-03T04:47:07.605Z,11.80
2022-09-03T04:49:34.547Z,6.80
2022-09-03T04:52:02.106Z,7.60
2022-09-03T04:54:29.226Z,7.90
2022-09-03T04:56:56.915Z,7.10
2022-09-03T04:59:23.470Z,8.60
2022-09-03T05:01:52.474Z,8.50
2022-09-03T05:04:19.699Z,8.50
2022-09-03T05:06:46.223Z,7.80
2022-09-03T05:09:12.965Z,8.60
2022-09-03T05:11:39.708Z,6.90
2022-09-03T05:14:06.517Z,6.30
2022-09-03T05:16:33.121Z,10.30
2022-09-03T05:19:01.411Z,9.30
2022-09-03T05:21:29.328Z,8.00
2022-09-03T05:23:56.286Z,7.30
2022-09-03T05:26:31.723Z,8.80
2022-09-03T05:29:01.018Z,8.40
2022-09-03T05:31:31.474Z,6.90
2022-09-03T05:34:00.983Z,8.30
2022-09-03T05:36:30.556Z,10.10
2022-09-03T05:38:58.834Z,8.20
2022-09-03T05:41:27.119Z,7.80
2022-09-03T05:44:00.676Z,6.80
2022-09-03T05:46:32.467Z,8.40
2022-09-03T05:49:00.844Z,7.80
2022-09-03T05:51:28.505Z,6.20
2022-09-03T05:53:55.762Z,8.20
2022-09-03T05:56:24.665Z,6.60
2022-09-03T05:58:53.544Z,6.10
2022-09-03T06:01:21.105Z,7.60
2022-09-03T06:03:54.394Z,7.10
2022-09-03T06:06:25.958Z,5.50
2022-09-03T06:08:58.020Z,6.40
2022-09-03T06:11:30.646Z,6.00
2022-09-03T06:14:00.600Z,8.10
2022-09-03T06:16:31.560Z,6.40
2022-09-03T06:19:00.535Z,7.20
2022-09-03T06:21:27.688Z,6.70
2022-09-03T06:24:00.094Z,7.40
2022-09-03T06:26:28.445Z,6.00
2022-09-03T06:28:56.607Z,8.10
2022-09-03T06:31:23.889Z,7.40
2022-09-03T06:33:51.855Z,9.00
2022-09-03T06:36:19.183Z,7.50
2022-09-03T06:38:47.158Z,7.40
2022-09-03T06:41:21.368Z,8.40
2022-09-03T06:43:48.925Z,6.40
2022-09-03T06:46:18.501Z,6.60
2022-09-03T06:48:46.205Z,7.00
2022-09-03T06:51:19.197Z,7.70
2022-09-03T06:53:51.248Z,9.00
2022-09-03T06:56:25.769Z,7.20
2022-09-03T06:58:55.848Z,7.90
2022-09-03T07:01:27.938Z,10.10
2022-09-03T07:04:00.666Z,7.80
2022-09-03T07:06:32.922Z,7.80
2022-09-03T07:09:00.266Z,6.60
2022-09-03T07:11:30.558Z,7.10
2022-09-03T07:13:58.793Z,6.40
2022-09-03T07:16:31.473Z,7.00
2022-09-03T07:18:58.279Z,7.40
2022-09-03T07:21:28.000Z,6.40
2022-09-03T07:23:55.983Z,5.80
2022-09-03T07:26:28.754Z,6.90
2022-09-03T07:28:56.491Z,7.40
2022-09-03T07:31:26.343Z,7.40
2022-09-03T07:33:56.194Z,8.10
2022-09-03T07:36:24.990Z,7.50
2022-09-03T07:38:55.734Z,7.80
2022-09-03T07:41:28.553Z,8.70
2022-09-03T07:43:57.163Z,9.90
2022-09-03T07:46:27.297Z,8.10
2022-09-03T07:48:56.837Z,7.70
2022-09-03T07:51:26.166Z,8.60
2022-09-03T07:53:55.039Z,8.50
2022-09-03T07:56:22.185Z,8.30
2022-09-03T07:58:48.915Z,7.70
2022-09-03T08:01:21.726Z,8.50
2022-09-03T08:03:50.761Z,8.80
2022-09-03T08:06:19.584Z,8.20
2022-09-03T08:08:46.346Z,10.00
2022-09-03T08:11:15.844Z,8.90
2022-09-03T08:14:06.390Z,9.80
2022-09-03T08:16:37.419Z,9.00
2022-09-03T08:19:05.035Z,8.40
2022-09-03T08:21:31.869Z,8.00
2022-09-03T08:24:02.626Z,7.30
2022-09-03T08:26:41.496Z,9.10
2022-09-03T08:29:08.993Z,11.10
2022-09-03T08:31:36.530Z,9.80
2022-09-03T08:34:06.410Z,8.60
2022-09-03T08:36:37.206Z,7.60
2022-09-03T08:39:09.214Z,8.10
2022-09-03T08:41:50.949Z,8.70
2022-09-03T08:44:20.466Z,8.90
2022-09-03T08:47:05.326Z,9.00
2022-09-03T08:49:38.709Z,9.80
2022-09-03T08:52:16.531Z,11.80
2022-09-03T08:54:43.871Z,7.60
2022-09-03T08:57:10.815Z,8.20
2022-09-03T08:59:37.467Z,9.20
2022-09-03T09:02:19.077Z,7.80
2022-09-03T09:05:14.162Z,7.40
2022-09-03T09:07:50.848Z,8.80
2022-09-03T09:10:24.126Z,8.80
2022-09-03T09:13:01.295Z,10.60
2022-09-03T09:15:50.756Z,9.50
2022-09-03T09:18:30.748Z,10.00
2022-09-03T09:21:27.400Z,7.50
2022-09-03T09:23:57.994Z,7.60
2022-09-03T09:26:24.949Z,7.90
2022-09-03T09:28:58.059Z,7.80
2022-09-03T09:31:25.247Z,9.10
2022-09-03T09:33:52.047Z,15.50
2022-09-03T09:36:19.271Z,8.60
2022-09-03T09:38:47.148Z,7.70
2022-09-03T09:41:27.583Z,7.50
2022-09-03T09:44:04.842Z,6.60
2022-09-03T09:46:42.133Z,8.00
2022-09-03T09:49:22.327Z,10.20
2022-09-03T09:51:49.582Z,7.80
2022-09-03T09:54:27.895Z,9.90
2022-09-03T09:57:06.511Z,7.50
2022-09-03T09:59:33.963Z,9.10
2022-09-03T10:02:13.839Z,8.90
2022-09-03T10:04:49.460Z,8.50
2022-09-03T10:07:32.003Z,7.90
2022-09-03T10:10:21.497Z,7.50
2022-09-03T10:12:58.937Z,6.70
2022-09-03T10:15:27.459Z,7.30
2022-09-03T10:17:56.937Z,10.10
2022-09-03T10:20:47.228Z,6.80
2022-09-03T10:23:18.662Z,11.20
2022-09-03T10:25:55.850Z,9.30
2022-09-03T10:28:26.938Z,12.80
2022-09-03T10:30:56.555Z,11.00
2022-09-03T10:33:27.948Z,8.10
2022-09-03T10:36:12.426Z,8.50
2022-09-03T10:38:40.164Z,7.70
2022-09-03T10:41:29.951Z,10.90
2022-09-03T10:44:14.816Z,8.20
2022-09-03T10:46:54.393Z,8.90
2022-09-03T10:49:31.958Z,8.20
2022-09-03T10:52:09.655Z,7.90
2022-09-03T10:54:38.914Z,8.10
2022-09-03T10:57:19.629Z,7.40
2022-09-03T11:00:10.627Z,8.10
2022-09-03T11:03:14.706Z,7.80
2022-09-03T11:06:02.711Z,5.90
2022-09-03T11:08:46.615Z,6.70
2022-09-03T11:11:32.742Z,9.10
2022-09-03T11:14:10.507Z,7.40
2022-09-03T11:16:43.825Z,8.50
2022-09-03T11:19:15.260Z,7.00
2022-09-03T11:21:43.585Z,6.60
2022-09-03T11:24:22.049Z,6.80
2022-09-03T11:27:07.765Z,6.50
2022-09-03T11:30:02.832Z,6.90
2022-09-03T11:32:49.406Z,8.40
2022-09-03T11:35:29.387Z,7.50
2022-09-03T11:38:00.372Z,7.30
2022-09-03T11:40:38.481Z,10.10
2022-09-03T11:43:06.939Z,7.10
2022-09-03T11:45:37.135Z,8.00
2022-09-03T11:48:18.157Z,9.50
2022-09-03T11:50:53.754Z,8.30
2022-09-03T11:53:20.159Z,7.00
2022-09-03T11:55:59.699Z,7.30
2022-09-03T11:58:34.383Z,7.90
2022-09-03T12:01:10.015Z,9.40
2022-09-03T12:04:03.155Z,8.20
2022-09-03T12:06:42.800Z,8.00
2022-09-03T12:09:16.084Z,9.70
2022-09-03T12:12:04.019Z,7.50
2022-09-03T12:14:50.471Z,7.80
2022-09-03T12:18:13.172Z,7.60
2022-09-03T12:20:40.844Z,7.30
2022-09-03T12:23:11.416Z,8.10
2022-09-03T12:25:47.224Z,8.10
2022-09-03T12:28:19.060Z,7.30
2022-09-03T12:30:46.874Z,8.20
2022-09-03T12:33:17.525Z,6.30
2022-09-03T12:36:00.463Z,7.40
2022-09-03T12:38:44.471Z,7.70
2022-09-03T12:41:29.271Z,7.40
2022-09-03T12:43:57.870Z,7.10
2022-09-03T12:46:33.736Z,7.40
2022-09-03T12:51:56.042Z,7.10
2022-09-03T12:54:24.293Z,6.90
2022-09-03T12:56:57.089Z,7.30
2022-09-03T12:59:26.292Z,7.40
2022-09-03T13:01:55.933Z,8.30
2022-09-03T13:04:34.324Z,6.70
2022-09-03T13:07:12.994Z,7.20
2022-09-03T13:09:40.851Z,7.60
2022-09-03T13:12:07.818Z,8.70
2022-09-03T13:14:44.899Z,8.80
2022-09-03T13:17:52.724Z,7.50
2022-09-03T13:20:25.301Z,8.00
2022-09-03T13:23:40.368Z,9.10
2022-09-03T13:26:19.542Z,8.00
2022-09-03T13:29:19.684Z,8.80
2022-09-03T13:31:53.344Z,7.50
2022-09-03T13:34:32.366Z,8.20
2022-09-03T13:37:31.705Z,9.70
2022-09-03T13:40:00.314Z,7.70
2022-09-03T13:42:30.838Z,8.30
2022-09-03T13:45:10.889Z,8.50
2022-09-03T13:48:04.436Z,9.70
2022-09-03T13:50:39.496Z,7.60
2022-09-03T13:53:18.729Z,7.70
2022-09-03T13:55:52.488Z,9.50
2022-09-03T13:58:31.905Z,8.70
2022-09-03T14:00:58.306Z,8.40
2022-09-03T14:03:49.636Z,8.10
2022-09-03T14:06:46.723Z,8.70
2022-09-03T14:09:50.962Z,9.00
2022-09-03T14:12:46.345Z,7.30
2022-09-03T14:15:34.482Z,8.30
2022-09-03T14:18:38.395Z,7.70
2022-09-03T14:21:09.749Z,7.40
2022-09-03T14:24:01.448Z,8.10
2022-09-03T14:26:39.207Z,8.80
2022-09-03T14:29:12.521Z,7.80
2022-09-03T14:32:07.220Z,8.60
2022-09-03T14:35:12.365Z,8.30
2022-09-03T14:37:50.955Z,8.90
2022-09-03T14:40:35.403Z,10.80
2022-09-03T14:43:20.621Z,8.70
2022-09-03T14:45:56.882Z,8.40
2022-09-03T14:48:54.399Z,8.60
2022-09-03T14:52:03.201Z,7.40
2022-09-03T14:54:47.856Z,8.50
2022-09-03T14:57:35.776Z,7.60
2022-09-03T15:00:08.101Z,8.30
2022-09-03T15:03:13.719Z,8.30
2022-09-03T15:05:43.210Z,7.70
2022-09-03T15:09:00.571Z,8.60
2022-09-03T15:11:31.800Z,9.10
2022-09-03T15:14:42.046Z,8.40
2022-09-03T15:17:30.642Z,8.90
2022-09-03T15:20:15.937Z,7.50
2022-09-03T15:23:17.540Z,8.00
2022-09-03T15:25:53.052Z,8.70
2022-09-03T15:28:25.257Z,9.10
2022-09-03T15:31:00.195Z,7.50
2022-09-03T15:33:36.745Z,9.00
2022-09-03T15:36:22.040Z,7.70
2022-09-03T15:38:55.468Z,7.90
2022-09-03T15:41:44.964Z,8.80
2022-09-03T15:44:19.696Z,8.40
2022-09-03T15:47:05.207Z,8.20
2022-09-03T15:50:19.154Z,8.90
2022-09-03T15:53:05.629Z,8.50
2022-09-03T15:55:38.493Z,7.60
2022-09-03T15:58:46.881Z,7.00
2022-09-03T16:01:31.286Z,11.40
2022-09-03T16:04:20.452Z,7.90
2022-09-03T16:07:01.310Z,11.20
2022-09-03T16:09:57.511Z,9.10
2022-09-03T16:13:07.745Z,7.80
2022-09-03T16:15:44.432Z,9.50
2022-09-03T16:18:13.905Z,8.40
2022-09-03T16:20:47.911Z,7.80
2022-09-03T16:23:46.433Z,9.10
2022-09-03T16:26:21.226Z,8.30
2022-09-03T16:28:58.309Z,8.30
2022-09-03T16:31:44.399Z,10.50
2022-09-03T16:34:48.599Z,8.80
2022-09-03T16:37:28.786Z,8.60
2022-09-03T16:40:24.532Z,8.40
2022-09-03T16:43:01.417Z,9.10
2022-09-03T16:45:48.552Z,14.20
2022-09-03T16:48:52.927Z,9.30
2022-09-03T16:51:26.501Z,10.20
2022-09-03T16:54:12.643Z,8.50
2022-09-03T16:57:14.887Z,9.80
2022-09-03T17:00:07.800Z,8.10
2022-09-03T17:02:42.167Z,12.00
2022-09-03T17:05:29.000Z,9.10
2022-09-03T17:08:18.810Z,9.50
2022-09-03T17:10:49.560Z,10.10
2022-09-03T17:13:41.935Z,8.50
2022-09-03T17:16:24.684Z,8.60
2022-09-03T17:19:16.828Z,9.10
2022-09-03T17:22:11.060Z,8.90
2022-09-03T17:24:47.934Z,8.90
2022-09-03T17:27:28.089Z,9.90
2022-09-03T17:30:00.466Z,10.50
2022-09-03T17:32:27.696Z,12.50
2022-09-03T17:35:20.677Z,11.20
2022-09-03T17:37:56.922Z,12.10
2022-09-03T17:40:47.078Z,10.70
2022-09-03T17:43:36.054Z,13.60
2022-09-03T17:47:01.174Z,8.20
2022-09-03T17:49:32.330Z,9.10
2022-09-03T17:52:06.875Z,10.90
2022-09-03T17:54:36.650Z,12.10
2022-09-03T17:57:32.059Z,12.70
2022-09-03T18:00:08.082Z,13.80
2022-09-03T18:02:39.308Z,12.40
2022-09-03T18:05:18.507Z,13.30
2022-09-03T18:08:05.666Z,14.70
2022-09-03T18:10:43.823Z,15.70
2022-09-03T18:13:23.960Z,16.90
2022-09-03T18:15:59.816Z,16.20
2022-09-03T18:18:32.622Z,15.70
2022-09-03T18:21:31.495Z,16.60
2022-09-03T18:24:30.606Z,17.30
2022-09-03T18:27:19.465Z,19.20
2022-09-03T18:30:20.609Z,16.70
2022-09-03T18:33:05.757Z,17.00
2022-09-03T18:35:52.646Z,16.20
2022-09-03T18:38:44.468Z,15.90
2022-09-03T18:42:00.443Z,19.00
2022-09-03T18:45:06.703Z,15.60
2022-09-03T18:48:20.893Z,20.00
2022-09-03T18:51:31.295Z,17.00
2022-09-03T18:54:56.762Z,20.80
2022-09-03T18:57:48.966Z,18.00
2022-09-03T19:00:35.066Z,19.30
2022-09-03T19:03:28.326Z,24.60
2022-09-03T19:06:35.394Z,24.30
2022-09-03T19:09:46.288Z,23.30
2022-09-03T19:12:58.917Z,17.40
2022-09-03T19:16:10.434Z,12.10
2022-09-03T19:19:15.105Z,11.60
2022-09-03T19:22:07.966Z,13.20
2022-09-03T19:24:53.848Z,13.90
2022-09-03T19:28:10.249Z,14.20
2022-09-03T19:31:36.905Z,13.80
2022-09-03T19:34:35.486Z,14.80
2022-09-03T19:37:24.130Z,14.60
2022-09-03T19:40:21.208Z,11.80
2022-09-03T19:43:36.852Z,13.80
2022-09-03T19:46:41.692Z,12.10
2022-09-03T19:49:35.170Z,14.40
2022-09-03T19:52:43.189Z,15.50
2022-09-03T19:55:31.833Z,14.40
2022-09-03T19:58:39.607Z,17.90
2022-09-03T20:01:30.702Z,20.00
2022-09-03T20:04:19.822Z,15.70
2022-09-03T20:07:06.307Z,11.10
2022-09-03T20:09:57.728Z,12.60
2022-09-03T20:12:29.054Z,14.50
2022-09-03T20:14:56.225Z,12.80
2022-09-03T20:17:35.785Z,11.60
2022-09-03T20:20:26.176Z,12.30
2022-09-03T20:23:03.862Z,12.90
2022-09-03T20:26:10.422Z,14.80
2022-09-03T20:29:13.328Z,15.20
2022-09-03T20:31:51.026Z,13.30
2022-09-03T20:34:53.325Z,13.70
2022-09-03T20:37:38.369Z,12.90
2022-09-03T20:40:41.066Z,15.60
2022-09-03T20:43:33.097Z,15.40
2022-09-03T20:46:26.512Z,14.90
2022-09-03T20:49:12.756Z,20.10
2022-09-03T20:51:53.115Z,18.60
2022-09-03T20:54:32.343Z,18.90
2022-09-03T20:57:14.349Z,19.40
2022-09-03T20:59:56.223Z,19.90
2022-09-03T21:02:29.022Z,18.60
2022-09-03T21:05:17.251Z,16.80
2022-09-03T21:07:57.629Z,17.90
2022-09-03T21:10:41.348Z,17.00
2022-09-03T21:13:17.039Z,17.50
2022-09-03T21:15:48.114Z,16.20
2022-09-03T21:18:41.399Z,16.00
2022-09-03T21:21:25.963Z,18.00
2022-09-03T21:24:20.819Z,21.80
2022-09-03T21:26:51.942Z,16.10
2022-09-03T21:29:39.123Z,16.40
2022-09-03T21:32:24.725Z,19.60
2022-09-03T21:35:11.768Z,19.20
2022-09-03T21:37:39.763Z,15.20
2022-09-03T21:40:08.201Z,14.30
2022-09-03T21:42:46.170Z,17.90
2022-09-03T21:45:14.958Z,14.40
2022-09-03T21:47:45.084Z,17.10
2022-09-03T21:50:18.266Z,15.20
2022-09-03T21:52:51.208Z,18.50
2022-09-03T21:55:21.409Z,15.70
2022-09-03T21:58:02.859Z,16.10
2022-09-03T22:00:32.432Z,17.70
2022-09-03T22:03:00.353Z,14.60
2022-09-03T22:06:13.166Z,17.70
2022-09-03T22:08:53.356Z,17.20
2022-09-03T22:11:28.899Z,19.30
2022-09-03T22:14:07.880Z,19.00
2022-09-03T22:16:59.988Z,15.60
2022-09-03T22:19:28.091Z,17.50
2022-09-03T22:21:59.684Z,17.30
2022-09-03T22:24:41.815Z,15.80
2022-09-03T22:27:44.326Z,16.20
2022-09-03T22:30:14.142Z,15.60
2022-09-03T22:32:55.025Z,18.30
2022-09-03T22:35:24.614Z,17.10
2022-09-03T22:38:24.969Z,18.60
2022-09-03T22:40:59.977Z,16.70
2022-09-03T22:43:40.146Z,18.80
2022-09-03T22:46:12.690Z,18.40
2022-09-03T22:49:11.711Z,18.10
2022-09-03T22:52:03.836Z,15.60
2022-09-03T22:55:04.165Z,20.70
2022-09-03T22:57:34.288Z,17.30
2022-09-03T23:00:11.519Z,17.90
2022-09-03T23:02:38.624Z,16.60
2022-09-03T23:05:07.199Z,18.40
2022-09-03T23:07:39.586Z,15.50
2022-09-03T23:10:14.624Z,16.60
2022-09-03T23:12:58.860Z,16.40
2022-09-03T23:15:30.108Z,15.60
2022-09-03T23:18:10.976Z,15.70
2022-09-03T23:20:42.578Z,19.80
2022-09-03T23:23:22.592Z,15.80
2022-09-03T23:25:59.336Z,16.80
2022-09-03T23:28:36.869Z,16.60
2022-09-03T23:31:29.548Z,17.10
2022-09-03T23:33:57.266Z,15.30
2022-09-03T23:37:10.363Z,16.80
2022-09-03T23:40:01.050Z,15.00
2022-09-03T23:42:30.592Z,15.80
2022-09-03T23:45:15.681Z,15.20
2022-09-03T23:47:51.597Z,14.50
2022-09-03T23:50:46.428Z,16.70
2022-09-03T23:53:50.028Z,14.70
2022-09-03T23:56:30.684Z,15.60
2022-09-03T23:59:29.479Z,17.30
